Accueil
METAR-TAF:

METAR-TAF

Aéroports :

Koweït, Koweït

Aéroport international de Koweït

latitude: 29-13N, longitude: 047-59E, altitude: 55 m

Observation

Le bulletin a été fait il y a 51 minutes, à 12:00 UTC
Vent 8 kt de nord/nord-est
Température 35°C
Humidité 18%
Pression 1012 hPa
Visibilité 10 km ou plus
pas de nuages en-dessous de 1500 mètres et pas de cumulonimbus.

METAR: OKBK 181200Z 02008KT CAVOK 35/07 Q1012 NOSIG

Heure: 15:51 (12:51 UTC)

Prévision

Le bulletin a été fait il y a 2 heures et 6 minutes, à 10:45 UTC
Prévision valable du 18 à 12 UTC au 19 à 18 UTC
Vent 10 kt de nord
Visibilité: 7000 m

TAF: OKBK 181045Z 1812/1918 01010KT 7000 NSC

Observations et prévisions météorologiques de plus de 4000 aéroports (messages METAR et TAF).

Les stations disponibles sont représentées par des disques jaunes et rouges sur la carte.

Passer la souris dessus pour voir le nom de la station.

Cliquer dessus pour voir les observations et prévisions météorologiques.

Pour changer de carte: cliquez sur les boutons verts avec une croix noire pour zoomer, sur le bouton vert avec un tiret pour effectuer un zoom arrière, ou sur les flèches vertes pour les cartes adjacentes.


METAR-TAF: